Time;durP1;ratioP1;P1;durP2;ratioP2;P2;SDS_P1;SDS_P2;PMS_P1;PMS_P2;Temp;Humidity;BMP_temperature;BMP_pressure;BME280_temperature;BME280_humidity;BME280_pressure;Samples;Min_cycle;Max_cycle;Signal;HPM_P1;HPM_P2
2022/02/02 00:00:40;;;;;;;30.63;14.63;;;;;;;-0.58;79.37;98460.94;5114680;28;20072;-94
2022/02/02 00:03:10;;;;;;;27.10;12.45;;;;;;;-0.52;78.64;98468.81;5113972;28;20454;-94
2022/02/02 00:08:47;;;;;;;19.67;9.95;;;;;;;-0.56;78.67;98480.97;5148106;27;1388255;-94
2022/02/02 00:14:25;;;;;;;25.70;12.30;;;;;;;-0.43;79.50;98498.53;5136000;27;20891;-93
2022/02/02 00:16:57;;;;;;;26.80;12.27;;;;;;;-0.49;77.67;98469.72;5135660;28;20069;-92
2022/02/02 00:19:36;;;;;;;37.05;16.00;;;;;;;-0.15;76.39;98491.03;5135207;28;20088;-94
2022/02/02 00:22:23;;;;;;;31.88;13.55;;;;;;;-0.13;76.78;98486.72;5134528;28;20043;-92
2022/02/02 00:27:30;;;;;;;35.08;13.80;;;;;;;-0.25;76.78;98491.78;5134471;27;20403;-95
2022/02/02 00:30:02;;;;;;;27.65;12.80;;;;;;;-0.21;77.31;98504.91;5135985;27;20047;-94
2022/02/02 00:35:20;;;;;;;21.60;10.60;;;;;;;-0.33;77.69;98482.97;5149528;27;20369;-94
2022/02/02 00:37:46;;;;;;;24.88;11.48;;;;;;;-0.38;78.27;98472.47;5115688;28;20044;-94
2022/02/02 00:40:12;;;;;;;23.55;11.43;;;;;;;-0.42;78.42;98460.22;5115576;28;20074;-92
2022/02/02 00:42:38;;;;;;;25.20;12.10;;;;;;;-0.44;78.41;98452.38;5115047;28;20040;-93
2022/02/02 00:45:06;;;;;;;26.60;12.05;;;;;;;-0.27;78.05;98469.97;5115469;28;20040;-93
2022/02/02 00:47:38;;;;;;;25.73;12.18;;;;;;;-0.48;78.85;98457.53;5115154;28;20416;-93
2022/02/02 00:50:05;;;;;;;28.58;11.75;;;;;;;-0.44;79.17;98461.94;5115873;28;20401;-92
2022/02/02 00:52:33;;;;;;;27.92;11.60;;;;;;;-0.31;77.88;98473.41;5115238;28;20044;-94
2022/02/02 00:54:59;;;;;;;31.15;12.88;;;;;;;-0.44;76.84;98434.09;5113524;28;20036;-92
2022/02/02 00:57:28;;;;;;;26.90;12.75;;;;;;;-0.37;76.59;98460.28;5113899;28;20496;-92
2022/02/02 00:59:54;;;;;;;42.08;14.05;;;;;;;-0.45;77.49;98454.97;5114345;28;20048;-92
2022/02/02 01:02:19;;;;;;;34.53;13.70;;;;;;;-0.58;78.43;98426.97;5112893;28;20048;-94
2022/02/02 01:04:48;;;;;;;27.30;12.30;;;;;;;-0.50;78.83;98440.97;5114238;28;20047;-92
2022/02/02 01:07:23;;;;;;;25.30;11.32;;;;;;;-0.55;78.39;98433.09;5113635;28;20044;-94
2022/02/02 01:12:48;;;;;;;22.63;10.50;;;;;;;-0.71;79.21;98416.38;5134540;27;20387;-93
2022/02/02 01:16:07;;;;;;;23.88;11.07;;;;;;;-0.66;78.38;98429.47;5132915;28;20133;-94
2022/02/02 01:21:17;;;;;;;23.90;10.45;;;;;;;-0.58;79.25;98469.63;5156097;27;20867;-94
2022/02/02 01:30:11;;;;;;;25.25;11.18;;;;;;;-0.57;80.72;98433.94;5126692;27;20740;-94
2022/02/02 01:32:37;;;;;;;;;;;;;;;-0.50;80.25;98461.88;5095550;28;20048;-93
2022/02/02 01:35:07;;;;;;;28.35;12.07;;;;;;;-0.63;80.72;98429.50;5094591;28;20023;-94
2022/02/02 01:37:34;;;;;;;;;;;;;;;-0.39;79.95;98465.50;5098678;28;20040;-91
2022/02/02 01:40:08;;;;;;;25.92;10.90;;;;;;;-0.55;80.19;98440.91;5102829;28;19989;-93
2022/02/02 01:42:44;;;;;;;30.33;12.85;;;;;;;-0.74;80.92;98407.63;5073826;28;20390;-94
2022/02/02 01:45:18;;;;;;;34.35;15.38;;;;;;;-0.63;81.08;98461.75;5084413;28;20424;-94
2022/02/02 01:47:59;;;;;;;30.77;14.60;;;;;;;-0.96;81.39;98424.75;5087436;28;20036;-94
2022/02/02 01:50:36;;;;;;;32.78;15.95;;;;;;;-0.90;80.82;98437.88;5093903;28;20567;-93
2022/02/02 01:56:05;;;;;;;26.98;12.93;;;;;;;-1.00;81.71;98434.25;5114483;27;20377;-94
2022/02/02 02:01:41;;;;;;;23.58;10.82;;;;;;;-1.06;82.59;98424.63;5175559;27;20383;-94
2022/02/02 02:04:06;;;;;;;26.02;11.82;;;;;;;-1.26;83.47;98402.59;5166070;27;20045;-93
2022/02/02 02:06:32;;;;;;;27.42;12.45;;;;;;;-0.95;81.22;98439.56;5160733;27;20030;-92
2022/02/02 02:08:58;;;;;;;24.55;12.00;;;;;;;-1.05;80.52;98408.09;5166819;27;20043;-94
2022/02/02 02:11:24;;;;;;;26.48;11.40;;;;;;;-0.97;81.21;98397.78;5157077;27;20038;-94
2022/02/02 02:14:34;;;;;;;28.90;11.57;;;;;;;-0.98;81.45;98402.97;5157074;27;20501;-96
2022/02/02 02:16:38;;;;;;;22.17;10.43;;;;;;;-1.12;82.78;98390.63;5126656;27;20039;-94
2022/02/02 02:19:06;;;;;;;25.23;10.65;;;;;;;-0.96;81.74;98429.97;5157178;27;20049;-93
2022/02/02 02:21:32;;;;;;;21.23;9.98;;;;;;;-1.17;81.80;98399.22;5156609;27;20488;-93
2022/02/02 02:24:00;;;;;;;19.50;10.77;;;;;;;-1.25;82.36;98397.41;5157695;27;20068;-94
2022/02/02 02:26:29;;;;;;;28.20;13.20;;;;;;;-1.32;83.64;98405.16;5155511;27;20042;-95
2022/02/02 02:29:12;;;;;;;27.58;11.93;;;;;;;-1.29;83.96;98431.25;5157194;27;20080;-94
2022/02/02 02:34:59;;;;;;;35.20;13.82;;;;;;;-1.37;84.80;98427.66;5019978;27;1448151;-94
2022/02/02 03:01:29;;;;;;;30.33;13.65;;;;;;;-2.00;87.40;98419.69;5115588;27;20772;-94
2022/02/02 03:55:30;;;;;;;20.08;10.15;;;;;;;-2.03;88.02;98414.44;5094467;27;20385;-95
2022/02/02 04:01:15;;;;;;;22.40;9.98;;;;;;;-1.80;86.08;98399.22;5155531;27;20374;-93
2022/02/02 04:06:27;;;;;;;22.38;11.00;;;;;;;-1.90;87.14;98394.69;5094253;27;20592;-96
2022/02/02 04:08:53;;;;;;;25.85;11.38;;;;;;;-1.89;87.18;98386.91;5094382;28;20119;-93
2022/02/02 04:11:31;;;;;;;21.52;10.43;;;;;;;-1.83;87.94;98385.25;5095430;28;20568;-95
2022/02/02 04:38:26;;;;;;;24.58;10.95;;;;;;;-2.16;90.33;98431.59;5155514;27;20719;-93
2022/02/02 05:06:02;;;;;;;20.00;10.95;;;;;;;-2.38;88.22;98380.84;5158656;27;20377;-94
2022/02/02 05:08:37;;;;;;;24.13;10.35;;;;;;;-2.34;87.89;98386.97;5158406;27;20083;-94
2022/02/02 05:45:12;;;;;;;16.83;9.00;;;;;;;-2.58;90.53;98388.31;5162174;27;20379;-94
2022/02/02 05:54:22;;;;;;;20.58;10.98;;;;;;;-2.66;91.48;98402.03;5077643;27;20371;-92
2022/02/02 05:56:50;;;;;;;23.17;11.68;;;;;;;-2.67;91.95;98408.94;5079151;28;20482;-93
2022/02/02 05:59:19;;;;;;;22.25;11.65;;;;;;;-2.61;92.13;98426.41;5079400;28;20090;-94
2022/02/02 06:01:49;;;;;;;;;;;;;;;-2.49;92.07;98442.28;5066890;28;20049;-93
2022/02/02 06:04:14;;;;;;;;;;;;;;;-2.46;92.99;98444.91;5072332;28;19924;-94
2022/02/02 06:06:42;;;;;;;20.88;9.68;;;;;;;-2.53;92.34;98425.69;5080434;28;19970;-93
2022/02/02 06:09:08;;;;;;;23.15;10.95;;;;;;;-2.71;92.81;98397.59;5084424;28;20048;-91
2022/02/02 06:11:37;;;;;;;19.80;10.93;;;;;;;-2.61;93.12;98414.25;5083487;28;20055;-92
2022/02/02 06:14:06;;;;;;;26.08;11.07;;;;;;;-2.58;93.26;98403.03;5076311;28;20487;-95
2022/02/02 06:16:35;;;;;;;17.67;10.25;;;;;;;-2.58;92.29;98410.81;5075658;28;20506;-94
2022/02/02 06:19:05;;;;;;;20.02;11.40;;;;;;;-2.61;92.74;98421.19;5078808;28;20044;-92
2022/02/02 06:21:33;;;;;;;19.65;10.52;;;;;;;-2.71;92.80;98413.22;5078315;28;20052;-93
2022/02/02 06:24:08;;;;;;;20.27;10.82;;;;;;;-2.70;92.53;98396.75;5077870;28;20044;-93
2022/02/02 06:26:37;;;;;;;17.98;9.60;;;;;;;-2.60;93.27;98391.69;5076367;28;20108;-94
2022/02/02 06:29:04;;;;;;;;;;;;;;;-2.23;92.35;98445.38;5076588;28;20041;-96
2022/02/02 06:31:34;;;;;;;19.52;9.77;;;;;;;-2.44;91.32;98405.91;5076283;28;19921;-93
2022/02/02 06:34:07;;;;;;;17.67;9.90;;;;;;;-2.42;91.28;98404.22;5076475;28;20041;-94
2022/02/02 06:36:36;;;;;;;21.55;10.93;;;;;;;-2.37;91.31;98416.44;5076947;28;20371;-92
2022/02/02 06:39:03;;;;;;;22.10;11.30;;;;;;;-2.37;91.29;98418.19;5074519;28;20049;-94
2022/02/02 06:41:29;;;;;;;26.35;12.13;;;;;;;-2.25;91.36;98408.00;5074998;28;20062;-94
2022/02/02 06:43:57;;;;;;;17.15;9.38;;;;;;;-1.90;89.77;98455.50;5073713;28;20041;-94
2022/02/02 06:46:28;;;;;;;17.58;9.20;;;;;;;-2.05;89.32;98416.16;5073093;28;20083;-94
2022/02/02 06:48:56;;;;;;;22.73;10.60;;;;;;;-1.83;89.83;98438.22;5073047;28;20216;-94
2022/02/02 06:51:32;;;;;;;18.92;10.63;;;;;;;-1.66;89.08;98468.06;5074140;28;20119;-93
2022/02/02 06:54:07;;;;;;;20.77;10.27;;;;;;;-1.65;90.04;98448.06;5073501;28;20571;-94
2022/02/02 06:56:43;;;;;;;21.27;10.73;;;;;;;-1.42;87.69;98468.44;5071915;28;20083;-93
2022/02/02 07:11:25;;;;;;;18.08;10.13;;;;;;;-1.04;84.90;98472.50;5109451;27;20878;-93
2022/02/02 07:17:44;;;;;;;33.00;14.60;;;;;;;-0.92;84.49;98466.56;5113903;27;20372;-93
2022/02/02 07:20:03;;;;;;;30.20;13.70;;;;;;;-0.97;84.01;98467.38;5113480;28;20050;-94
2022/02/02 07:34:32;;;;;;;22.55;13.10;;;;;;;-0.57;82.15;98439.16;5135204;27;20193;-93
2022/02/02 07:37:02;;;;;;;27.92;14.40;;;;;;;-0.70;81.90;98427.69;5135072;27;20580;-92
2022/02/02 07:39:29;;;;;;;29.98;14.52;;;;;;;-0.65;81.71;98441.66;5135531;27;20035;-93
2022/02/02 07:42:02;;;;;;;24.33;13.35;;;;;;;-0.51;81.81;98449.69;5135578;27;20024;-93
2022/02/02 07:44:32;;;;;;;25.48;13.00;;;;;;;-0.37;81.75;98429.81;5135325;27;20047;-92
2022/02/02 07:47:01;;;;;;;27.55;12.88;;;;;;;-0.27;80.74;98433.41;5134598;27;20050;-95
2022/02/02 07:49:29;;;;;;;28.33;12.77;;;;;;;-0.15;79.60;98448.31;5134717;27;20130;-93
2022/02/02 07:51:56;;;;;;;24.35;12.77;;;;;;;-0.12;79.97;98437.91;5135414;28;20040;-94
2022/02/02 07:54:27;;;;;;;22.88;13.25;;;;;;;-0.09;79.05;98422.25;5135824;27;20023;-91
2022/02/02 07:56:54;;;;;;;29.17;13.48;;;;;;;0.09;78.91;98456.44;5136696;27;20040;-93
2022/02/02 07:59:34;;;;;;;24.25;12.05;;;;;;;0.12;77.15;98442.50;5133657;27;20497;-91
2022/02/02 08:02:02;;;;;;;22.38;12.60;;;;;;;0.27;76.82;98447.00;5134326;27;20066;-93
2022/02/02 08:04:31;;;;;;;19.73;11.45;;;;;;;0.29;77.14;98440.91;5136328;27;20046;-93
2022/02/02 08:06:57;;;;;;;22.05;11.88;;;;;;;0.52;76.69;98458.53;5134711;27;20074;-92
2022/02/02 08:09:30;;;;;;;22.35;11.32;;;;;;;0.61;76.30;98456.00;5134087;27;20130;-93
2022/02/02 08:11:57;;;;;;;17.83;11.10;;;;;;;0.58;75.89;98441.13;5133726;27;20493;-93
2022/02/02 08:14:24;;;;;;;25.83;11.98;;;;;;;0.84;75.51;98470.97;5133684;27;20051;-92
2022/02/02 08:16:50;;;;;;;23.85;12.57;;;;;;;0.77;74.73;98439.53;5134378;27;20043;-93
2022/02/02 08:19:17;;;;;;;19.65;10.82;;;;;;;0.97;74.09;98463.19;5134938;27;20103;-92
2022/02/02 08:21:45;;;;;;;24.33;11.55;;;;;;;1.13;73.70;98476.38;5134104;27;20039;-92
2022/02/02 08:24:12;;;;;;;22.98;11.02;;;;;;;1.26;73.60;98485.19;5134476;27;20032;-93
2022/02/02 08:26:37;;;;;;;19.17;11.25;;;;;;;1.26;71.89;98446.81;5135059;27;20039;-93
2022/02/02 08:29:03;;;;;;;20.25;10.57;;;;;;;1.30;71.71;98443.34;5134337;27;20462;-93
2022/02/02 08:31:29;;;;;;;18.98;11.48;;;;;;;1.34;70.79;98442.44;5132784;28;20047;-94
2022/02/02 08:33:59;;;;;;;22.30;11.73;;;;;;;1.43;71.70;98453.00;5134360;27;20059;-94
2022/02/02 08:36:26;;;;;;;20.15;12.75;;;;;;;1.56;70.16;98453.03;5134321;27;20497;-94
2022/02/02 08:39:06;;;;;;;23.65;12.93;;;;;;;1.71;70.77;98450.44;5134207;27;20075;-93
2022/02/02 08:41:38;;;;;;;28.58;13.20;;;;;;;1.94;70.52;98457.53;5134904;27;20043;-93
2022/02/02 08:44:40;;;;;;;23.95;13.10;;;;;;;2.08;69.16;98463.66;5128207;27;20062;-94
2022/02/02 08:47:08;;;;;;;25.48;13.70;;;;;;;2.29;69.76;98477.69;5120983;28;20430;-95
2022/02/02 08:49:44;;;;;;;20.80;13.38;;;;;;;2.41;69.42;98480.34;5121785;27;20046;-94
2022/02/02 08:52:10;;;;;;;22.73;12.73;;;;;;;2.53;68.68;98471.59;5121103;28;20036;-94
2022/02/02 08:54:45;;;;;;;26.58;13.38;;;;;;;2.71;68.09;98495.22;5120908;28;20048;-95
2022/02/02 09:00:22;;;;;;;19.05;12.27;;;;;;;2.87;67.87;98494.31;5110173;27;20381;-93
2022/02/02 09:05:19;;;;;;;24.10;11.27;;;;;;;2.92;67.06;98480.31;5087501;28;20072;-93
2022/02/02 09:05:34;;;;;;;21.85;11.48;;;;;;;2.92;66.73;98465.44;5072832;28;20044;-93
2022/02/02 09:07:59;;;;;;;21.30;12.40;;;;;;;3.11;66.64;98500.44;5073456;28;20048;-94
2022/02/02 09:20:02;;;;;;;29.35;14.10;;;;;;;3.03;66.37;98476.78;5077157;28;20037;-93
2022/02/02 09:25:26;;;;;;;21.38;11.55;;;;;;;3.74;63.33;98508.13;5112682;27;20373;-92
2022/02/02 09:36:29;;;;;;;23.15;12.32;;;;;;;4.21;61.96;98467.56;5132921;27;20375;-93
2022/02/02 09:38:57;;;;;;;23.52;12.35;;;;;;;4.21;61.46;98451.78;5133113;28;20039;-93
2022/02/02 09:41:39;;;;;;;22.60;12.25;;;;;;;4.30;61.16;98467.50;5132627;27;20558;-95
2022/02/02 09:44:08;;;;;;;22.23;11.95;;;;;;;4.45;61.09;98479.69;5132590;27;20063;-93
2022/02/02 09:46:45;;;;;;;;;;;;;;;4.66;59.42;98481.28;5133484;27;20039;-93
2022/02/02 09:49:21;;;;;;;19.45;11.05;;;;;;;4.59;59.37;98436.56;5132933;28;19998;-94
2022/02/02 09:51:57;;;;;;;21.58;11.30;;;;;;;4.65;58.42;98447.91;5132626;28;20047;-93
2022/02/02 09:54:31;;;;;;;18.42;11.82;;;;;;;4.44;59.24;98440.19;5132434;28;20109;-94
2022/02/02 09:57:27;;;;;;;20.75;10.25;;;;;;;4.55;59.17;98463.81;5132627;28;20123;-94
2022/02/02 10:06:16;;;;;;;16.73;10.30;;;;;;;5.19;56.75;98447.41;5142282;27;20377;-92
2022/02/02 10:14:46;;;;;;;17.13;9.48;;;;;;;5.31;54.53;98456.94;5091635;27;20363;-91
2022/02/02 10:17:13;;;;;;;16.67;9.07;;;;;;;5.34;54.63;98463.06;5089927;28;20135;-92
2022/02/02 10:19:39;;;;;;;15.52;8.13;;;;;;;5.47;54.22;98455.88;5091871;28;20048;-94
2022/02/02 10:22:27;;;;;;;18.52;9.82;;;;;;;5.75;54.39;98474.03;5091674;28;20052;-94
2022/02/02 10:25:00;;;;;;;16.33;8.50;;;;;;;5.57;53.82;98443.44;5091991;28;20135;-93
2022/02/02 10:27:32;;;;;;;16.95;9.43;;;;;;;5.67;54.10;98444.22;5092134;28;20040;-94
2022/02/02 10:30:10;;;;;;;23.33;9.57;;;;;;;5.81;53.86;98460.72;5091806;28;20048;-94
2022/02/02 10:32:39;;;;;;;19.23;10.60;;;;;;;6.00;55.11;98473.72;5091477;28;20541;-92
2022/02/02 10:35:07;;;;;;;15.53;9.57;;;;;;;6.10;55.31;98470.06;5091642;28;20055;-94
2022/02/02 10:37:34;;;;;;;21.15;10.18;;;;;;;6.09;55.58;98447.19;5091520;28;20049;-93
2022/02/02 10:40:02;;;;;;;14.60;8.82;;;;;;;6.42;55.25;98458.16;5092206;28;20062;-94
2022/02/02 10:42:40;;;;;;;14.18;7.63;;;;;;;6.47;54.57;98427.28;5093744;28;20083;-93
2022/02/02 10:45:21;;;;;;;16.87;9.13;;;;;;;6.54;54.82;98428.91;5092701;28;20398;-93
2022/02/02 10:47:52;;;;;;;17.60;10.48;;;;;;;6.59;55.51;98421.75;5092731;28;20072;-93
2022/02/02 10:50:28;;;;;;;17.00;10.55;;;;;;;6.76;55.78;98438.22;5092006;28;20066;-92
2022/02/02 10:56:32;;;;;;;16.92;10.07;;;;;;;6.65;56.93;98421.66;5113876;27;20393;-92
2022/02/02 11:06:35;;;;;;;13.68;9.30;;;;;;;6.63;59.33;98417.31;5113999;27;20373;-92
2022/02/02 11:07:36;;;;;;;18.73;10.35;;;;;;;6.65;59.87;98413.75;5113460;27;20385;-93
2022/02/02 11:10:02;;;;;;;16.17;10.20;;;;;;;6.69;60.26;98410.16;5106883;28;20044;-92
2022/02/02 11:12:32;;;;;;;18.65;10.32;;;;;;;6.83;60.43;98430.19;5113307;28;20558;-92
2022/02/02 11:15:06;;;;;;;18.85;10.18;;;;;;;6.71;60.49;98408.34;5112946;28;20119;-91
2022/02/02 11:17:42;;;;;;;17.92;10.30;;;;;;;6.68;60.29;98382.00;5113082;28;20051;-91
2022/02/02 11:20:11;;;;;;;20.45;11.02;;;;;;;6.94;60.47;98407.97;5112271;28;20131;-95
2022/02/02 11:22:47;;;;;;;17.95;9.70;;;;;;;6.93;62.07;98411.47;5113222;28;20516;-92
2022/02/02 11:25:33;;;;;;;22.10;10.40;;;;;;;6.77;61.26;98379.19;5112926;28;20447;-92
2022/02/02 11:28:01;;;;;;;19.42;11.13;;;;;;;6.97;62.09;98401.75;5113268;28;20035;-90
2022/02/02 11:30:40;;;;;;;20.48;11.10;;;;;;;6.96;62.04;98395.59;5113733;28;20035;-92
2022/02/02 11:33:20;;;;;;;18.70;10.15;;;;;;;7.10;62.50;98405.03;5114189;28;20044;-93
2022/02/02 11:35:47;;;;;;;18.70;10.45;;;;;;;7.09;62.42;98412.09;5114269;28;20040;-93
2022/02/02 11:38:22;;;;;;;14.38;9.52;;;;;;;7.11;63.06;98407.66;5115854;28;20043;-92
2022/02/02 11:44:43;;;;;;;17.63;10.70;;;;;;;7.28;62.92;98409.09;5133419;27;20387;-91
2022/02/02 11:47:21;;;;;;;19.15;10.82;;;;;;;7.26;64.00;98392.38;5132430;27;20046;-92
2022/02/02 11:49:53;;;;;;;17.98;10.07;;;;;;;7.50;65.86;98418.31;5132758;27;20031;-92
2022/02/02 11:52:34;;;;;;;15.32;9.45;;;;;;;7.45;65.78;98401.69;5133171;27;20085;-90
2022/02/02 11:55:00;;;;;;;17.05;10.25;;;;;;;7.53;65.83;98422.69;5133157;27;20047;-93
2022/02/02 11:57:33;;;;;;;18.80;9.68;;;;;;;7.47;66.30;98393.72;5133558;27;20100;-90
2022/02/02 12:06:16;;;;;;;17.98;10.48;;;;;;;7.77;65.96;98390.41;5135277;27;20414;-94
2022/02/02 12:08:53;;;;;;;19.38;11.52;;;;;;;7.95;65.06;98388.25;5134943;28;20031;-91
2022/02/02 12:18:56;;;;;;;17.10;11.35;;;;;;;8.15;64.19;98380.72;5133199;28;20084;-92
2022/02/02 12:21:31;;;;;;;17.73;10.23;;;;;;;8.33;64.87;98367.97;5113624;27;20132;-91
2022/02/02 12:47:54;;;;;;;19.67;10.60;;;;;;;8.67;65.81;98359.19;5112878;27;20388;-92
2022/02/02 12:56:23;;;;;;;17.48;9.88;;;;;;;8.79;65.83;98349.13;5151252;27;20980;-92
2022/02/02 12:58:51;;;;;;;15.38;9.73;;;;;;;8.81;65.92;98355.25;5135006;27;20043;-93
2022/02/02 13:01:19;;;;;;;16.30;9.55;;;;;;;8.74;67.00;98339.53;5134770;27;20048;-91
2022/02/02 13:03:46;;;;;;;17.20;9.15;;;;;;;8.80;66.99;98350.00;5135110;27;20057;-92
2022/02/02 13:06:14;;;;;;;14.23;9.45;;;;;;;8.92;66.77;98351.47;5134571;28;20051;-93
2022/02/02 13:08:41;;;;;;;14.50;8.55;;;;;;;8.88;67.17;98341.84;5136034;27;20051;-93
2022/02/02 13:11:07;;;;;;;16.80;10.18;;;;;;;8.97;68.84;98341.59;5135652;27;20492;-93
2022/02/02 13:13:35;;;;;;;26.38;13.45;;;;;;;9.04;67.06;98354.66;5135524;27;20039;-92
2022/02/02 13:16:11;;;;;;;20.23;10.40;;;;;;;8.99;66.71;98353.03;5135393;28;20092;-93
2022/02/02 13:18:41;;;;;;;17.88;9.85;;;;;;;8.99;67.20;98364.50;5135859;27;20046;-92
2022/02/02 13:26:55;;;;;;;17.08;9.50;;;;;;;9.24;67.02;98354.09;5139747;27;20384;-93
2022/02/02 13:32:38;;;;;;;16.48;9.25;;;;;;;9.20;66.96;98346.25;5138546;27;20387;-95
2022/02/02 13:35:22;;;;;;;17.33;9.43;;;;;;;9.32;66.29;98361.81;5139001;27;20461;-94
2022/02/02 13:44:21;;;;;;;16.38;9.13;;;;;;;9.24;66.75;98348.78;5123512;28;20044;-95
2022/02/02 13:47:10;;;;;;;26.08;12.15;;;;;;;9.44;67.07;98380.03;5097177;28;20127;-95
2022/02/02 13:49:51;;;;;;;14.38;9.07;;;;;;;9.29;67.13;98367.22;5096570;28;20037;-95
2022/02/02 13:52:51;;;;;;;15.95;9.13;;;;;;;9.48;66.25;98369.31;5100159;28;20104;-95
2022/02/02 13:55:36;;;;;;;14.70;8.07;;;;;;;9.36;66.81;98357.31;5096172;28;20041;-94
2022/02/02 14:01:10;;;;;;;14.88;8.90;;;;;;;9.26;68.15;98346.09;5124307;28;20048;-96
2022/02/02 14:33:27;;;;;;;16.77;8.00;;;;;;;9.90;66.05;98400.84;5136104;27;20382;-96
2022/02/02 14:35:57;;;;;;;16.65;8.48;;;;;;;9.76;66.34;98383.56;5137125;27;20040;-93
2022/02/02 14:38:23;;;;;;;15.77;8.80;;;;;;;9.84;65.64;98378.84;5139734;27;20077;-95
2022/02/02 14:44:10;;;;;;;13.93;8.65;;;;;;;9.67;66.59;98370.53;5141358;27;20461;-94
2022/02/02 14:46:41;;;;;;;19.65;9.75;;;;;;;9.52;67.74;98374.53;5139279;28;20043;-94
2022/02/02 14:56:00;;;;;;;22.70;9.13;;;;;;;9.36;68.83;98374.09;5116069;27;20854;-94
2022/02/02 15:16:59;;;;;;;26.95;13.45;;;;;;;9.40;68.80;98388.16;5096555;27;20382;-96
2022/02/02 15:29:11;;;;;;;24.73;10.90;;;;;;;9.38;68.33;98393.50;5137604;27;20372;-93
2022/02/02 15:31:40;;;;;;;21.55;10.95;;;;;;;9.26;69.33;98393.84;5139690;27;20430;-95
2022/02/02 15:34:11;;;;;;;17.48;10.30;;;;;;;9.23;69.88;98392.13;5139749;27;20039;-95
2022/02/02 15:39:20;;;;;;;24.25;12.98;;;;;;;8.99;71.02;98416.66;5140143;27;20402;-93
2022/02/02 16:04:33;;;;;;;13.05;8.05;;;;;;;7.97;79.65;98442.91;5149078;27;20388;-96
2022/02/02 16:07:05;;;;;;;14.88;8.70;;;;;;;7.57;81.56;98421.75;5148708;27;20461;-95
2022/02/02 16:09:44;;;;;;;14.07;8.77;;;;;;;7.37;82.63;98435.34;5142352;27;20046;-95
2022/02/02 16:12:20;;;;;;;14.05;8.77;;;;;;;7.13;83.82;98437.56;5141941;27;20048;-94
2022/02/02 16:15:01;;;;;;;14.97;9.03;;;;;;;6.87;84.66;98434.50;5143459;27;20438;-94
2022/02/02 16:44:29;;;;;;;17.45;8.13;;;;;;;5.94;89.54;98517.78;5177571;27;20373;-96
2022/02/02 16:46:55;;;;;;;17.08;9.02;;;;;;;5.86;90.08;98527.53;5176225;27;20053;-94
2022/02/02 16:49:21;;;;;;;14.68;8.20;;;;;;;5.93;89.35;98541.53;5175845;27;20038;-92
2022/02/02 16:51:47;;;;;;;15.20;7.80;;;;;;;5.75;89.48;98509.19;5176094;27;20042;-94
2022/02/02 16:54:26;;;;;;;18.42;8.63;;;;;;;5.91;89.94;98535.38;5175659;27;20038;-94
2022/02/02 17:35:33;;;;;;;14.85;8.45;;;;;;;5.12;93.85;98570.47;5096455;27;20414;-93
2022/02/02 17:38:09;;;;;;;11.98;7.90;;;;;;;5.31;94.28;98600.19;5093857;28;20044;-94
2022/02/02 18:17:44;;;;;;;31.10;16.48;;;;;;;5.56;91.91;98643.03;5136255;27;20871;-93
2022/02/02 18:19:26;;;;;;;38.22;20.38;;;;;;;5.45;91.68;98638.75;5123080;28;20078;-93
2022/02/02 18:21:52;;;;;;;29.13;19.65;;;;;;;5.57;91.92;98672.91;5138568;28;20477;-92
2022/02/02 18:27:17;;;;;;;34.17;20.65;;;;;;;5.30;92.63;98661.72;5098284;28;20804;-95
2022/02/02 18:32:45;;;;;;;30.20;19.17;;;;;;;5.14;92.49;98676.78;5153727;27;20362;-93
2022/02/02 18:35:18;;;;;;;34.50;19.90;;;;;;;5.14;94.03;98683.81;5136755;27;20141;-96
2022/02/02 18:47:03;;;;;;;34.72;20.33;;;;;;;4.86;94.42;98704.19;5095498;27;20400;-94
2022/02/02 18:52:49;;;;;;;39.05;23.10;;;;;;;4.73;95.13;98695.47;5136643;27;20418;-93
2022/02/02 19:01:21;;;;;;;33.65;18.13;;;;;;;4.70;95.13;98721.81;5116015;27;20372;-94
2022/02/02 20:13:15;;;;;;;28.50;17.25;;;;;;;3.98;100.00;98829.91;5135417;27;20379;-94
2022/02/02 20:15:41;;;;;;;30.63;18.95;;;;;;;3.94;100.00;98836.03;5135524;27;20066;-92
2022/02/02 20:18:09;;;;;;;33.40;20.75;;;;;;;3.90;100.00;98837.78;5135564;27;20047;-95
2022/02/02 20:20:40;;;;;;;34.60;21.70;;;;;;;3.87;100.00;98830.75;5135976;27;20043;-93
2022/02/02 20:23:08;;;;;;;31.27;19.15;;;;;;;3.74;100.00;98820.25;5135852;27;20077;-95
2022/02/02 20:25:37;;;;;;;33.35;19.17;;;;;;;3.70;100.00;98814.09;5135694;27;20040;-94
2022/02/02 20:28:06;;;;;;;34.85;20.08;;;;;;;3.68;100.00;98818.47;5134399;27;20051;-94
2022/02/02 20:30:35;;;;;;;29.15;17.00;;;;;;;3.59;100.00;98813.19;5135085;27;20055;-94
2022/02/02 20:33:02;;;;;;;33.40;18.52;;;;;;;3.57;100.00;98821.06;5136873;27;20047;-92
2022/02/02 20:35:28;;;;;;;48.78;31.35;;;;;;;3.43;100.00;98814.94;5137005;27;20039;-94
2022/02/02 20:37:53;;;;;;;46.33;27.38;;;;;;;3.42;100.00;98808.78;5136299;27;20080;-95
2022/02/02 20:40:26;;;;;;;26.92;18.02;;;;;;;3.38;100.00;98822.78;5136515;27;20037;-94
2022/02/02 20:43:02;;;;;;;31.45;18.38;;;;;;;3.34;100.00;98834.19;5135905;27;20039;-93
2022/02/02 20:45:59;;;;;;;34.80;20.75;;;;;;;3.19;100.00;98826.22;5136352;27;20043;-93
2022/02/02 21:14:41;;;;;;;37.15;23.00;;;;;;;2.82;100.00;98907.47;5156064;27;20361;-93
2022/02/02 21:17:19;;;;;;;32.92;21.05;;;;;;;3.29;100.00;98902.47;5131282;28;20093;-93
2022/02/02 21:19:55;;;;;;;34.42;21.58;;;;;;;3.14;99.60;98877.88;5135516;27;20051;-92
2022/02/02 21:22:23;;;;;;;47.78;27.95;;;;;;;3.07;98.94;98896.25;5135789;27;20074;-94
2022/02/02 21:25:04;;;;;;;57.20;30.73;;;;;;;2.88;99.98;98895.31;5134654;27;20035;-93
2022/02/02 21:27:37;;;;;;;65.88;34.47;;;;;;;3.00;100.00;98914.63;5134630;27;20039;-93
2022/02/02 21:30:09;;;;;;;46.50;26.67;;;;;;;3.42;100.00;98920.94;5134161;27;20131;-95
2022/02/02 21:32:35;;;;;;;49.95;29.63;;;;;;;3.23;98.19;98894.59;5135274;27;20047;-94
2022/02/02 21:35:06;;;;;;;55.88;33.92;;;;;;;3.01;99.50;98896.22;5135841;27;20040;-94
2022/02/02 21:37:34;;;;;;;35.55;19.70;;;;;;;2.94;100.00;98907.56;5134376;27;20121;-94
2022/02/02 21:40:16;;;;;;;34.28;21.67;;;;;;;2.82;100.00;98931.13;5133889;27;20039;-95
2022/02/02 21:42:43;;;;;;;38.67;21.55;;;;;;;2.77;100.00;98940.72;5133820;27;20078;-95
2022/02/02 21:45:10;;;;;;;31.95;19.30;;;;;;;2.72;100.00;98939.81;5134657;27;20062;-95
2022/02/02 21:47:38;;;;;;;27.17;15.18;;;;;;;2.67;100.00;98950.31;5135277;27;20050;-94
2022/02/02 21:50:10;;;;;;;22.83;14.15;;;;;;;2.51;100.00;98933.53;5134165;27;20445;-94
2022/02/02 21:52:39;;;;;;;20.85;13.95;;;;;;;2.51;100.00;98941.41;5135650;27;20039;-94
2022/02/02 21:55:05;;;;;;;;;;;;;;;2.58;100.00;98959.00;5135764;27;20104;-95
2022/02/02 21:57:32;;;;;;;23.15;15.23;;;;;;;2.34;100.00;98924.66;5133426;28;20498;-95
2022/02/02 21:59:58;;;;;;;23.60;14.15;;;;;;;2.37;100.00;98933.44;5134258;27;20047;-95
2022/02/02 22:02:26;;;;;;;18.58;12.80;;;;;;;2.28;100.00;98929.84;5133661;27;20085;-95
2022/02/02 22:04:54;;;;;;;21.77;13.43;;;;;;;2.38;100.00;98948.31;5133414;27;20052;-96
2022/02/02 22:07:20;;;;;;;19.25;12.10;;;;;;;2.18;100.00;98932.38;5132274;27;20054;-95
2022/02/02 22:09:49;;;;;;;22.52;12.35;;;;;;;2.36;100.00;98968.41;5133019;27;20044;-95
2022/02/02 22:12:15;;;;;;;23.17;12.85;;;;;;;2.28;100.00;98963.94;5133944;27;20100;-95
2022/02/02 22:14:43;;;;;;;27.92;17.33;;;;;;;2.22;100.00;98959.53;5135716;28;20040;-95
2022/02/02 22:17:11;;;;;;;20.08;11.93;;;;;;;2.37;100.00;98992.94;5135078;27;20521;-96
2022/02/02 22:19:38;;;;;;;15.95;11.52;;;;;;;2.20;100.00;98964.75;5135883;27;20047;-94
2022/02/02 22:22:04;;;;;;;17.83;12.23;;;;;;;2.15;100.00;98962.97;5136065;27;20039;-93
2022/02/02 22:24:35;;;;;;;21.38;13.48;;;;;;;2.26;100.00;98998.94;5127808;27;20039;-93
2022/02/02 22:27:03;;;;;;;26.25;12.52;;;;;;;2.04;100.00;98965.50;5120025;28;20055;-95
2022/02/02 22:29:31;;;;;;;17.75;10.90;;;;;;;2.20;100.00;99004.13;5122253;28;20040;-95
2022/02/02 22:31:57;;;;;;;21.70;11.32;;;;;;;2.09;100.00;98990.03;5127815;28;20535;-95
2022/02/02 22:34:23;;;;;;;21.38;12.00;;;;;;;2.12;100.00;98997.91;5121640;28;20449;-94
2022/02/02 22:36:53;;;;;;;32.95;21.17;;;;;;;2.35;100.00;98981.53;5120306;28;20071;-93
2022/02/02 22:39:20;;;;;;;31.63;18.90;;;;;;;2.63;100.00;98975.66;5119647;28;20566;-92
2022/02/02 22:41:49;;;;;;;32.42;20.13;;;;;;;2.93;100.00;98984.63;5099024;28;20090;-93